createdAt,value
2019-01-09T00:00:37.655Z,0.00
2019-01-09T00:01:37.698Z,0.00
2019-01-09T00:02:37.727Z,0.00
2019-01-09T00:03:37.762Z,0.00
2019-01-09T00:04:37.795Z,0.00
2019-01-09T00:05:37.829Z,0.00
2019-01-09T00:06:37.864Z,0.00
2019-01-09T00:07:37.915Z,0.00
2019-01-09T00:08:37.935Z,0.00
2019-01-09T00:09:37.973Z,0.00
2019-01-09T00:10:38.007Z,0.00
2019-01-09T00:11:38.046Z,0.00
2019-01-09T00:12:38.085Z,0.00
2019-01-09T00:13:38.114Z,0.00
2019-01-09T00:14:38.151Z,0.00
2019-01-09T00:15:38.182Z,0.00
2019-01-09T00:16:38.234Z,0.00
2019-01-09T00:17:38.253Z,0.00
2019-01-09T00:18:38.287Z,0.00
2019-01-09T00:19:38.322Z,0.00
2019-01-09T00:20:38.357Z,0.00
2019-01-09T00:21:38.393Z,0.00
2019-01-09T00:22:38.435Z,0.00
2019-01-09T00:23:38.470Z,0.00
2019-01-09T00:24:38.498Z,0.00
2019-01-09T00:25:38.533Z,0.00
2019-01-09T00:26:38.567Z,0.00
2019-01-09T00:27:38.603Z,0.00
2019-01-09T00:28:38.638Z,0.00
2019-01-09T00:29:38.673Z,0.00
2019-01-09T00:30:38.707Z,0.00
2019-01-09T00:31:38.743Z,0.00
2019-01-09T00:32:38.778Z,0.00
2019-01-09T00:33:38.813Z,0.00
2019-01-09T00:34:38.847Z,0.00
2019-01-09T00:35:38.883Z,0.00
2019-01-09T00:36:38.919Z,0.00
2019-01-09T00:37:38.951Z,0.00
2019-01-09T00:38:40.530Z,0.00
2019-01-09T00:39:39.022Z,0.00
2019-01-09T00:40:39.058Z,0.00
2019-01-09T00:41:39.093Z,0.00
2019-01-09T00:42:39.128Z,0.00
2019-01-09T00:43:39.168Z,0.00
2019-01-09T00:44:39.207Z,0.00
2019-01-09T00:45:39.242Z,0.00
2019-01-09T00:46:39.271Z,0.00
2019-01-09T00:47:39.303Z,0.00
2019-01-09T00:48:39.345Z,0.00
2019-01-09T00:49:39.377Z,0.00
2019-01-09T00:50:39.417Z,0.00
2019-01-09T00:51:39.453Z,0.00
2019-01-09T00:52:39.480Z,0.00
2019-01-09T00:53:39.519Z,0.00
2019-01-09T00:54:39.549Z,0.00
2019-01-09T00:55:39.585Z,0.00
2019-01-09T00:56:39.621Z,0.00
2019-01-09T00:57:39.657Z,0.00
2019-01-09T00:58:39.690Z,0.00
2019-01-09T00:59:39.727Z,0.00
2019-01-09T01:00:39.760Z,0.00
2019-01-09T01:01:39.803Z,0.00
2019-01-09T01:02:39.834Z,0.00
2019-01-09T01:03:39.947Z,0.00
2019-01-09T01:04:39.901Z,0.00
2019-01-09T01:05:46.006Z,0.00
2019-01-09T01:06:39.972Z,0.00
2019-01-09T01:07:40.009Z,0.00
2019-01-09T01:08:40.044Z,0.00
2019-01-09T01:09:40.078Z,0.00
2019-01-09T01:10:40.118Z,0.00
2019-01-09T01:11:40.147Z,0.00
2019-01-09T01:12:40.183Z,0.00
2019-01-09T01:13:40.222Z,0.00
2019-01-09T01:14:40.253Z,0.00
2019-01-09T01:15:40.295Z,0.00
2019-01-09T01:16:40.323Z,0.00
2019-01-09T01:17:40.358Z,0.00
2019-01-09T01:18:40.394Z,0.00
2019-01-09T01:19:40.430Z,0.00
2019-01-09T01:20:40.467Z,0.00
2019-01-09T01:21:40.500Z,0.00
2019-01-09T01:22:40.548Z,0.00
2019-01-09T01:23:40.570Z,0.00
2019-01-09T01:24:40.605Z,0.00
2019-01-09T01:25:40.743Z,0.00
2019-01-09T01:26:40.676Z,0.00
2019-01-09T01:27:40.711Z,0.00
2019-01-09T01:28:40.747Z,0.00
2019-01-09T01:29:40.781Z,0.00
2019-01-09T01:30:40.827Z,0.00
2019-01-09T01:31:40.852Z,0.00
2019-01-09T01:32:40.887Z,0.00
2019-01-09T01:33:40.924Z,0.00
2019-01-09T01:34:40.959Z,0.00
2019-01-09T01:35:40.993Z,0.00
2019-01-09T01:36:41.028Z,0.00
2019-01-09T01:37:41.065Z,0.00
2019-01-09T01:38:41.098Z,0.00
2019-01-09T01:39:41.137Z,0.00
2019-01-09T01:40:41.170Z,0.00
2019-01-09T01:41:41.205Z,0.00
2019-01-09T01:42:41.239Z,0.00
2019-01-09T01:43:41.274Z,0.00
2019-01-09T01:44:41.412Z,0.00
2019-01-09T01:45:41.439Z,0.00
2019-01-09T01:46:41.380Z,0.00
2019-01-09T01:47:41.415Z,0.00
2019-01-09T01:48:41.458Z,0.00
2019-01-09T01:49:41.486Z,0.00
2019-01-09T01:50:41.522Z,0.00
2019-01-09T01:51:41.558Z,0.00
2019-01-09T01:52:41.592Z,0.00
2019-01-09T01:53:41.628Z,0.00
2019-01-09T01:54:41.661Z,0.00
2019-01-09T01:55:41.698Z,0.00
2019-01-09T01:56:41.733Z,0.00
2019-01-09T01:57:41.771Z,0.00
2019-01-09T01:58:41.810Z,0.00
2019-01-09T01:59:41.839Z,0.00
2019-01-09T02:00:41.874Z,0.00
2019-01-09T02:01:41.912Z,0.00
2019-01-09T02:02:41.946Z,0.00
2019-01-09T02:03:42.046Z,0.00
2019-01-09T02:04:42.014Z,0.00
2019-01-09T02:05:42.049Z,0.00
2019-01-09T02:06:42.084Z,0.00
2019-01-09T02:07:42.134Z,0.00
2019-01-09T02:08:42.160Z,0.00
2019-01-09T02:09:42.190Z,0.00
2019-01-09T02:10:42.227Z,0.00
2019-01-09T02:11:42.259Z,0.00
2019-01-09T02:12:42.294Z,0.00
2019-01-09T02:13:42.330Z,0.00
2019-01-09T02:14:42.364Z,0.00
2019-01-09T02:15:42.405Z,0.00
2019-01-09T02:16:42.436Z,0.00
2019-01-09T02:17:42.471Z,0.00
2019-01-09T02:18:42.512Z,0.00
2019-01-09T02:19:42.544Z,0.00
2019-01-09T02:20:42.576Z,0.00
2019-01-09T02:21:42.615Z,0.00
2019-01-09T02:22:42.657Z,0.00
2019-01-09T02:23:42.681Z,0.00
2019-01-09T02:24:42.718Z,0.00
2019-01-09T02:25:42.753Z,0.00
2019-01-09T02:26:42.788Z,0.00
2019-01-09T02:27:42.822Z,0.00
2019-01-09T02:28:42.857Z,0.00
2019-01-09T02:29:42.892Z,0.00
2019-01-09T02:30:42.933Z,0.00
2019-01-09T02:31:42.965Z,0.00
2019-01-09T02:32:42.998Z,0.00
2019-01-09T02:33:43.042Z,0.00
2019-01-09T02:34:43.084Z,0.00
2019-01-09T02:35:43.106Z,0.00
2019-01-09T02:36:43.146Z,0.00
2019-01-09T02:37:43.182Z,0.00
2019-01-09T02:38:43.208Z,0.00
2019-01-09T02:39:43.249Z,0.00
2019-01-09T02:40:43.278Z,0.00
2019-01-09T02:41:43.313Z,0.00
2019-01-09T02:42:43.378Z,0.00
2019-01-09T02:43:43.383Z,0.00
2019-01-09T02:44:43.418Z,0.00
2019-01-09T02:45:43.456Z,0.00
2019-01-09T02:46:43.487Z,0.00
2019-01-09T02:47:43.522Z,0.00
2019-01-09T02:48:43.559Z,0.00
2019-01-09T02:49:43.594Z,0.00
2019-01-09T02:50:43.626Z,0.00
2019-01-09T02:51:43.662Z,0.00
2019-01-09T02:52:43.699Z,0.00
2019-01-09T02:53:43.740Z,0.00
2019-01-09T02:54:43.767Z,0.00
2019-01-09T02:55:43.802Z,0.00
2019-01-09T02:56:43.841Z,0.00
2019-01-09T02:57:43.871Z,0.00
2019-01-09T02:58:43.911Z,0.00
2019-01-09T02:59:43.943Z,0.00
2019-01-09T03:00:43.978Z,0.00
2019-01-09T03:01:44.106Z,0.00
2019-01-09T03:02:44.048Z,0.00
2019-01-09T03:03:44.080Z,0.00
2019-01-09T03:04:44.117Z,0.00
2019-01-09T03:05:44.154Z,0.00
2019-01-09T03:06:44.187Z,0.00
2019-01-09T03:07:44.221Z,0.00
2019-01-09T03:08:44.257Z,0.00
2019-01-09T03:09:44.293Z,0.00
2019-01-09T03:10:44.326Z,0.00
2019-01-09T03:11:44.361Z,0.00
2019-01-09T03:12:44.397Z,0.00
2019-01-09T03:13:44.430Z,0.00
2019-01-09T03:14:44.465Z,0.00
2019-01-09T03:15:44.501Z,0.00
2019-01-09T03:16:44.536Z,0.00
2019-01-09T03:17:44.572Z,0.00
2019-01-09T03:18:44.604Z,0.00
2019-01-09T03:19:44.641Z,0.00
2019-01-09T03:20:44.676Z,0.00
2019-01-09T03:21:44.724Z,0.00
2019-01-09T03:22:44.746Z,0.00
2019-01-09T03:23:44.785Z,0.00
2019-01-09T03:24:44.816Z,0.00
2019-01-09T03:25:44.851Z,0.00
2019-01-09T03:26:44.886Z,0.00
2019-01-09T03:27:44.921Z,0.00
2019-01-09T03:28:44.957Z,0.00
2019-01-09T03:29:44.995Z,0.00
2019-01-09T03:30:45.035Z,0.00
2019-01-09T03:31:45.066Z,0.00
2019-01-09T03:32:45.317Z,0.00
2019-01-09T03:33:45.130Z,0.00
2019-01-09T03:34:45.171Z,0.00
2019-01-09T03:35:45.201Z,0.00
2019-01-09T03:36:45.236Z,0.00
2019-01-09T03:37:45.271Z,0.00
2019-01-09T03:38:45.306Z,0.00
2019-01-09T03:39:45.346Z,0.00
2019-01-09T03:40:45.379Z,0.00
2019-01-09T03:41:45.411Z,0.00
2019-01-09T03:42:45.444Z,0.00
2019-01-09T03:43:45.491Z,0.00
2019-01-09T03:44:45.517Z,0.00
2019-01-09T03:45:45.556Z,0.00
2019-01-09T03:46:45.590Z,0.00
2019-01-09T03:47:45.619Z,0.00
2019-01-09T03:48:45.655Z,0.00
2019-01-09T03:49:45.690Z,0.00
2019-01-09T03:50:45.724Z,0.00
2019-01-09T03:51:45.760Z,0.00
2019-01-09T03:52:45.796Z,0.00
2019-01-09T03:53:45.954Z,0.00
2019-01-09T03:54:45.864Z,0.00
2019-01-09T03:55:45.904Z,0.00
2019-01-09T03:56:45.936Z,0.00
2019-01-09T03:57:45.971Z,0.00
2019-01-09T03:58:46.008Z,0.00
2019-01-09T03:59:46.039Z,0.00
2019-01-09T04:00:46.076Z,0.00
2019-01-09T04:01:46.115Z,0.00
2019-01-09T04:02:46.145Z,0.00
2019-01-09T04:03:46.192Z,0.00
2019-01-09T04:04:46.215Z,0.00
2019-01-09T04:05:46.257Z,0.00
2019-01-09T04:06:46.287Z,0.00
2019-01-09T04:07:46.320Z,0.00
2019-01-09T04:08:46.355Z,0.00
2019-01-09T04:09:46.398Z,0.00
2019-01-09T04:10:46.426Z,0.00
2019-01-09T04:11:46.460Z,0.00
2019-01-09T04:12:46.496Z,0.00
2019-01-09T04:13:46.534Z,0.00
2019-01-09T04:14:46.565Z,0.00
2019-01-09T04:15:46.599Z,0.00
2019-01-09T04:16:46.634Z,0.00
2019-01-09T04:17:46.669Z,0.00
2019-01-09T04:18:46.709Z,0.00
2019-01-09T04:19:46.741Z,0.00
2019-01-09T04:20:46.774Z,0.00
2019-01-09T04:21:46.910Z,0.00
2019-01-09T04:22:46.846Z,0.00
2019-01-09T04:23:46.880Z,0.00
2019-01-09T04:24:46.934Z,0.00
2019-01-09T04:25:46.949Z,0.00
2019-01-09T04:26:46.983Z,0.00
2019-01-09T04:27:47.018Z,0.00
2019-01-09T04:28:47.075Z,0.00
2019-01-09T04:29:47.088Z,0.00
2019-01-09T04:30:47.122Z,0.00
2019-01-09T04:31:47.164Z,0.00
2019-01-09T04:32:47.196Z,0.00
2019-01-09T04:33:47.234Z,0.00
2019-01-09T04:34:47.265Z,0.00
2019-01-09T04:35:47.300Z,0.00
2019-01-09T04:36:51.758Z,0.00
2019-01-09T04:37:47.372Z,0.00
2019-01-09T04:38:47.404Z,0.00
2019-01-09T04:39:47.439Z,0.00
2019-01-09T04:40:47.805Z,0.00
2019-01-09T04:41:47.509Z,0.00
2019-01-09T04:42:47.545Z,0.00
2019-01-09T04:43:47.585Z,0.00
2019-01-09T04:44:47.613Z,0.00
2019-01-09T04:45:47.650Z,0.00
2019-01-09T04:46:47.707Z,0.00
2019-01-09T04:47:47.725Z,0.00
2019-01-09T04:48:47.759Z,0.00
2019-01-09T04:49:47.790Z,0.00
2019-01-09T04:50:47.822Z,0.00
2019-01-09T04:51:47.857Z,0.00
2019-01-09T04:52:47.894Z,0.00
2019-01-09T04:53:47.930Z,0.00
2019-01-09T04:54:47.963Z,0.00
2019-01-09T04:55:48.002Z,0.00
2019-01-09T04:56:48.033Z,0.00
2019-01-09T04:57:48.069Z,0.00
2019-01-09T04:58:48.103Z,0.00
2019-01-09T04:59:48.136Z,0.00
2019-01-09T05:00:48.173Z,0.00
2019-01-09T05:01:48.210Z,0.00
2019-01-09T05:02:48.243Z,0.00
2019-01-09T05:03:48.280Z,0.00
2019-01-09T05:04:49.475Z,0.00
2019-01-09T05:05:48.346Z,0.00
2019-01-09T05:06:48.384Z,0.00
2019-01-09T05:07:48.415Z,0.00
2019-01-09T05:08:48.451Z,0.00
2019-01-09T05:09:48.492Z,0.00
2019-01-09T05:10:48.519Z,0.00
2019-01-09T05:11:48.651Z,0.00
2019-01-09T05:12:48.592Z,0.00
2019-01-09T05:13:48.629Z,0.00
2019-01-09T05:14:48.660Z,0.00
2019-01-09T05:15:48.711Z,0.00
2019-01-09T05:16:48.732Z,0.00
2019-01-09T05:17:48.766Z,0.00
2019-01-09T05:18:48.800Z,0.00
2019-01-09T05:19:48.834Z,0.00
2019-01-09T05:20:48.871Z,0.00
2019-01-09T05:21:48.907Z,0.00
2019-01-09T05:22:48.939Z,0.00
2019-01-09T05:23:48.975Z,0.00
2019-01-09T05:24:49.012Z,0.00
2019-01-09T05:25:49.048Z,0.00
2019-01-09T05:26:49.091Z,0.00
2019-01-09T05:27:49.118Z,0.00
2019-01-09T05:28:49.151Z,0.00
2019-01-09T05:29:49.184Z,0.00
2019-01-09T05:30:49.302Z,0.00
2019-01-09T05:31:49.265Z,0.00
2019-01-09T05:32:49.289Z,0.00
2019-01-09T05:33:49.324Z,0.00
2019-01-09T05:34:49.359Z,0.00
2019-01-09T05:35:49.394Z,0.00
2019-01-09T05:36:49.450Z,0.00
2019-01-09T05:37:49.465Z,0.00
2019-01-09T05:38:49.498Z,0.00
2019-01-09T05:39:49.543Z,0.00
2019-01-09T05:40:49.569Z,0.00
2019-01-09T05:41:49.609Z,0.00
2019-01-09T05:42:49.638Z,0.00
2019-01-09T05:43:49.671Z,0.00
2019-01-09T05:44:49.707Z,0.00
2019-01-09T05:45:49.744Z,0.00
2019-01-09T05:46:49.781Z,0.00
2019-01-09T05:47:49.811Z,0.00
2019-01-09T05:48:49.855Z,0.00
2019-01-09T05:49:49.887Z,0.00
2019-01-09T05:50:49.915Z,0.00
2019-01-09T05:51:49.951Z,0.00
2019-01-09T05:52:49.990Z,0.00
2019-01-09T05:53:50.024Z,0.00
2019-01-09T05:54:50.056Z,0.00
2019-01-09T05:55:50.091Z,0.00
2019-01-09T05:56:50.126Z,0.00
2019-01-09T05:57:50.161Z,0.00
2019-01-09T05:58:50.199Z,0.00
2019-01-09T05:59:50.232Z,0.00
2019-01-09T06:00:50.267Z,0.00
2019-01-09T06:01:50.304Z,0.00
2019-01-09T06:02:50.340Z,0.00
2019-01-09T06:03:50.374Z,0.00
2019-01-09T06:04:50.406Z,0.00
2019-01-09T06:05:50.443Z,0.00
2019-01-09T06:06:50.477Z,0.00
2019-01-09T06:07:50.513Z,0.00
2019-01-09T06:08:50.546Z,0.00
2019-01-09T06:09:50.583Z,0.00
2019-01-09T06:10:50.615Z,0.00
2019-01-09T06:11:50.650Z,0.00
2019-01-09T06:12:50.684Z,0.00
2019-01-09T06:13:50.720Z,0.00
2019-01-09T06:14:50.757Z,0.00
2019-01-09T06:15:50.791Z,0.00
2019-01-09T06:16:50.827Z,0.00
2019-01-09T06:17:50.861Z,0.00
2019-01-09T06:18:50.894Z,0.00
2019-01-09T06:19:50.930Z,0.00
2019-01-09T06:20:50.990Z,0.00
2019-01-09T06:21:51.000Z,0.00
2019-01-09T06:22:51.033Z,0.00
2019-01-09T06:23:51.071Z,0.00
2019-01-09T06:24:51.104Z,0.00
2019-01-09T06:25:51.141Z,0.00
2019-01-09T06:26:51.173Z,0.00
2019-01-09T06:27:51.212Z,0.00
2019-01-09T06:28:51.248Z,0.00
2019-01-09T06:29:51.280Z,0.00
2019-01-09T06:30:51.321Z,0.00
2019-01-09T06:31:51.349Z,0.00
2019-01-09T06:32:51.385Z,0.00
2019-01-09T06:33:51.428Z,0.00
2019-01-09T06:34:51.462Z,0.00
2019-01-09T06:35:51.489Z,0.00
2019-01-09T06:36:51.532Z,0.00
2019-01-09T06:37:51.559Z,0.00
2019-01-09T06:38:51.594Z,0.00
2019-01-09T06:39:51.629Z,0.00
2019-01-09T06:40:51.665Z,0.00
2019-01-09T06:41:51.700Z,0.00
2019-01-09T06:42:51.741Z,0.00
2019-01-09T06:43:51.768Z,0.00
2019-01-09T06:44:51.804Z,0.00
2019-01-09T06:45:51.838Z,0.00
2019-01-09T06:46:51.874Z,0.00
2019-01-09T06:47:51.909Z,0.00
2019-01-09T06:48:51.944Z,0.00
2019-01-09T06:49:51.978Z,4.00
2019-01-09T06:50:52.015Z,4.00
2019-01-09T06:51:52.050Z,0.00
2019-01-09T06:52:52.086Z,4.00
2019-01-09T06:53:52.142Z,4.00
2019-01-09T06:54:52.201Z,8.00
2019-01-09T06:55:52.211Z,8.00
2019-01-09T06:56:52.235Z,4.00
2019-01-09T06:57:52.258Z,8.00
2019-01-09T06:58:52.296Z,8.00
2019-01-09T06:59:52.332Z,12.00
2019-01-09T07:00:52.376Z,12.00
2019-01-09T07:01:52.408Z,12.00
2019-01-09T07:02:52.432Z,16.00
2019-01-09T07:03:52.475Z,20.00
2019-01-09T07:04:52.502Z,24.00
2019-01-09T07:05:52.538Z,28.00
2019-01-09T07:06:52.573Z,28.00
2019-01-09T07:07:52.612Z,32.00
2019-01-09T07:08:52.643Z,36.00
2019-01-09T07:09:52.682Z,40.00
2019-01-09T07:10:52.713Z,44.00
2019-01-09T07:11:52.750Z,44.00
2019-01-09T07:12:52.781Z,52.00
2019-01-09T07:13:52.817Z,48.00
2019-01-09T07:14:52.860Z,52.00
2019-01-09T07:15:52.886Z,56.00
2019-01-09T07:16:52.921Z,60.00
2019-01-09T07:17:52.957Z,68.00
2019-01-09T07:18:52.990Z,72.00
2019-01-09T07:19:53.025Z,80.00
2019-01-09T07:20:53.061Z,92.00
2019-01-09T07:21:53.095Z,100.00
2019-01-09T07:22:53.281Z,104.00
2019-01-09T07:23:53.168Z,116.00
2019-01-09T07:24:53.200Z,116.00
2019-01-09T07:25:53.237Z,124.00
2019-01-09T07:26:53.271Z,132.00
2019-01-09T07:27:53.305Z,140.00
2019-01-09T07:28:53.348Z,140.00
2019-01-09T07:29:53.378Z,156.00
2019-01-09T07:30:53.427Z,164.00
2019-01-09T07:31:53.450Z,172.00
2019-01-09T07:32:53.481Z,180.00
2019-01-09T07:33:53.516Z,188.00
2019-01-09T07:34:53.551Z,188.00
2019-01-09T07:35:53.586Z,196.00
2019-01-09T07:36:53.621Z,220.00
2019-01-09T07:37:53.657Z,232.00
2019-01-09T07:38:53.701Z,248.00
2019-01-09T07:39:53.729Z,268.00
2019-01-09T07:40:53.762Z,272.00
2019-01-09T07:41:53.798Z,272.00
2019-01-09T07:42:53.832Z,288.00
2019-01-09T07:43:53.867Z,308.00
2019-01-09T07:44:53.902Z,328.00
2019-01-09T07:45:53.946Z,352.00
2019-01-09T07:46:53.970Z,372.00
2019-01-09T07:47:54.011Z,392.00
2019-01-09T07:48:54.041Z,396.00
2019-01-09T07:49:54.077Z,420.00
2019-01-09T07:50:54.111Z,460.00
2019-01-09T07:51:54.146Z,492.00
2019-01-09T07:52:54.183Z,512.00
2019-01-09T07:53:57.272Z,536.00
2019-01-09T07:54:54.250Z,600.00
2019-01-09T07:55:54.295Z,624.00
2019-01-09T07:56:54.325Z,628.00
2019-01-09T07:57:54.361Z,660.00
2019-01-09T07:58:54.392Z,724.00
2019-01-09T07:59:54.429Z,792.00
2019-01-09T08:00:54.464Z,828.00
2019-01-09T08:01:54.506Z,824.00
2019-01-09T08:02:54.533Z,840.00
2019-01-09T08:03:54.570Z,880.00
2019-01-09T08:04:54.613Z,964.00
2019-01-09T08:05:54.640Z,1020.00
2019-01-09T08:06:54.675Z,1068.00
2019-01-09T08:07:54.708Z,1088.00
2019-01-09T08:08:54.744Z,1088.00
2019-01-09T08:09:54.782Z,1060.00
2019-01-09T08:10:54.819Z,1068.00
2019-01-09T08:11:54.849Z,1176.00
2019-01-09T08:12:54.884Z,1204.00
2019-01-09T08:13:54.922Z,1192.00
2019-01-09T08:14:54.962Z,1232.00
2019-01-09T08:15:54.992Z,1220.00
2019-01-09T08:16:55.031Z,1136.00
2019-01-09T08:17:55.063Z,1228.00
2019-01-09T08:18:55.101Z,1204.00
2019-01-09T08:19:55.132Z,1136.00
2019-01-09T08:20:55.170Z,1032.00
2019-01-09T08:21:55.206Z,1172.00
2019-01-09T08:22:55.236Z,1356.00
2019-01-09T08:23:55.282Z,1236.00
2019-01-09T08:24:55.307Z,1184.00
2019-01-09T08:25:55.342Z,1172.00
2019-01-09T08:26:55.378Z,1408.00
2019-01-09T08:27:55.414Z,1372.00
2019-01-09T08:28:55.448Z,1252.00
2019-01-09T08:29:55.484Z,1184.00
2019-01-09T08:30:55.565Z,1124.00
2019-01-09T08:31:55.556Z,1044.00
2019-01-09T08:32:55.589Z,1100.00
2019-01-09T08:33:55.626Z,1016.00
2019-01-09T08:34:55.659Z,1232.00
2019-01-09T08:35:55.694Z,1144.00
2019-01-09T08:36:55.729Z,1132.00
2019-01-09T08:38:02.714Z,1116.00
2019-01-09T08:38:55.801Z,1408.00
2019-01-09T08:39:55.836Z,1548.00
2019-01-09T08:40:55.874Z,1312.00
2019-01-09T08:41:55.909Z,1604.00
2019-01-09T08:42:55.942Z,1852.00
2019-01-09T08:43:56.000Z,1596.00
2019-01-09T08:44:56.013Z,1828.00
2019-01-09T08:45:56.049Z,2160.00
2019-01-09T08:46:56.088Z,2256.00
2019-01-09T08:47:56.128Z,2448.00
2019-01-09T08:48:56.155Z,2328.00
2019-01-09T08:49:56.190Z,2644.00
2019-01-09T08:50:56.224Z,3080.00
2019-01-09T08:51:56.260Z,3348.00
2019-01-09T08:52:56.295Z,3768.00
2019-01-09T08:53:56.330Z,3896.00
2019-01-09T08:54:56.365Z,3992.00
2019-01-09T08:55:56.400Z,3904.00
2019-01-09T08:56:56.435Z,3712.00
2019-01-09T08:57:56.474Z,3448.00
2019-01-09T08:58:56.506Z,3304.00
2019-01-09T08:59:56.549Z,3272.00
2019-01-09T09:00:56.582Z,3140.00
2019-01-09T09:01:56.614Z,3248.00
2019-01-09T09:02:56.647Z,3640.00
2019-01-09T09:03:56.683Z,3912.00
2019-01-09T09:04:56.728Z,3900.00
2019-01-09T09:05:56.754Z,3972.00
2019-01-09T09:06:56.788Z,3908.00
2019-01-09T09:07:56.925Z,3836.00
2019-01-09T09:08:56.866Z,3720.00
2019-01-09T09:09:56.894Z,3904.00
2019-01-09T09:10:56.930Z,3996.00
2019-01-09T09:11:56.975Z,3900.00
2019-01-09T09:12:57.002Z,4004.00
2019-01-09T09:13:57.037Z,4288.00
2019-01-09T09:14:57.075Z,4116.00
2019-01-09T09:15:57.112Z,4004.00
2019-01-09T09:16:57.142Z,3924.00
2019-01-09T09:17:57.189Z,3840.00
2019-01-09T09:18:57.213Z,3780.00
2019-01-09T09:19:57.255Z,3692.00
2019-01-09T09:20:57.287Z,3604.00
2019-01-09T09:21:57.328Z,3556.00
2019-01-09T09:22:57.366Z,3472.00
2019-01-09T09:23:57.391Z,3176.00
2019-01-09T09:24:57.431Z,3108.00
2019-01-09T09:25:57.463Z,3112.00
2019-01-09T09:26:57.496Z,3176.00
2019-01-09T09:27:57.533Z,3236.00
2019-01-09T09:28:57.575Z,3308.00
2019-01-09T09:29:57.603Z,3276.00
2019-01-09T09:30:57.714Z,3180.00
2019-01-09T09:31:57.686Z,3156.00
2019-01-09T09:32:57.720Z,3204.00
2019-01-09T09:33:57.744Z,3332.00
2019-01-09T09:34:57.783Z,3508.00
2019-01-09T09:35:57.816Z,3668.00
2019-01-09T09:36:57.850Z,3844.00
2019-01-09T09:37:57.892Z,4032.00
2019-01-09T09:38:58.071Z,4248.00
2019-01-09T09:39:57.959Z,4492.00
2019-01-09T09:40:57.992Z,4640.00
2019-01-09T09:41:58.027Z,4808.00
2019-01-09T09:42:58.063Z,5004.00
2019-01-09T09:43:58.100Z,5152.00
2019-01-09T09:44:58.135Z,5196.00
2019-01-09T09:45:58.178Z,5312.00
2019-01-09T09:46:58.204Z,5548.00
2019-01-09T09:47:58.241Z,5632.00
2019-01-09T09:48:58.279Z,5692.00
2019-01-09T09:49:58.311Z,5452.00
2019-01-09T09:50:58.344Z,5464.00
2019-01-09T09:51:58.382Z,5516.00
2019-01-09T09:52:58.426Z,5308.00
2019-01-09T09:53:58.462Z,5216.00
2019-01-09T09:54:58.488Z,5096.00
2019-01-09T09:55:58.524Z,5132.00
2019-01-09T09:56:58.559Z,5128.00
2019-01-09T09:58:05.610Z,5044.00
2019-01-09T09:58:58.633Z,5016.00
2019-01-09T09:59:58.670Z,5188.00
2019-01-09T10:00:58.711Z,5368.00
2019-01-09T10:01:58.740Z,5352.00
2019-01-09T10:02:58.770Z,5260.00
2019-01-09T10:03:58.806Z,5168.00
2019-01-09T10:04:58.843Z,5084.00
2019-01-09T10:05:58.879Z,5188.00
2019-01-09T10:06:58.912Z,5412.00
2019-01-09T10:07:58.948Z,5524.00
2019-01-09T10:08:58.983Z,5536.00
2019-01-09T10:09:59.018Z,5772.00
2019-01-09T10:10:59.058Z,5508.00
2019-01-09T10:11:59.089Z,5464.00
2019-01-09T10:12:59.126Z,5592.00
2019-01-09T10:13:59.160Z,5624.00
2019-01-09T10:14:59.205Z,5768.00
2019-01-09T10:15:59.232Z,5780.00
2019-01-09T10:16:59.269Z,5876.00
2019-01-09T10:17:59.306Z,5912.00
2019-01-09T10:18:59.350Z,5884.00
2019-01-09T10:19:59.382Z,5600.00
2019-01-09T10:20:59.411Z,5368.00
2019-01-09T10:21:59.453Z,5696.00
2019-01-09T10:22:59.490Z,5604.00
2019-01-09T10:23:59.519Z,5348.00
2019-01-09T10:24:59.557Z,5040.00
2019-01-09T10:25:59.590Z,4728.00
2019-01-09T10:26:59.625Z,3856.00
2019-01-09T10:27:59.660Z,3256.00
2019-01-09T10:28:59.700Z,3880.00
2019-01-09T10:29:59.733Z,5164.00
2019-01-09T10:30:59.765Z,5536.00
2019-01-09T10:31:59.803Z,5640.00
2019-01-09T10:32:59.845Z,6156.00
2019-01-09T10:33:59.875Z,6712.00
2019-01-09T10:34:59.909Z,7200.00
2019-01-09T10:35:59.951Z,7816.00
2019-01-09T10:36:59.979Z,8372.00
2019-01-09T10:38:00.016Z,8896.00
2019-01-09T10:39:00.050Z,8608.00
2019-01-09T10:40:00.092Z,8908.00
2019-01-09T10:41:00.122Z,8896.00
2019-01-09T10:42:00.156Z,8652.00
2019-01-09T10:43:00.193Z,8224.00
2019-01-09T10:44:00.228Z,8432.00
2019-01-09T10:45:00.265Z,8380.00
2019-01-09T10:46:00.303Z,7744.00
2019-01-09T10:47:00.339Z,7416.00
2019-01-09T10:48:00.373Z,7404.00
2019-01-09T10:49:00.408Z,7444.00
2019-01-09T10:50:00.444Z,6828.00
2019-01-09T10:51:00.482Z,6040.00
2019-01-09T10:52:00.521Z,5564.00
2019-01-09T10:53:00.549Z,5192.00
2019-01-09T10:54:00.818Z,4808.00
2019-01-09T10:55:00.621Z,4740.00
2019-01-09T10:56:00.668Z,4712.00
2019-01-09T10:57:00.702Z,4144.00
2019-01-09T10:58:00.729Z,3816.00
2019-01-09T10:59:00.763Z,3764.00
2019-01-09T11:00:00.801Z,3980.00
2019-01-09T11:01:00.847Z,4024.00
2019-01-09T11:02:00.930Z,3828.00
2019-01-09T11:03:00.907Z,3552.00
2019-01-09T11:04:00.959Z,3488.00
2019-01-09T11:05:00.981Z,3376.00
2019-01-09T11:06:01.015Z,3188.00
2019-01-09T11:07:01.058Z,3008.00
2019-01-09T11:08:01.085Z,2836.00
2019-01-09T11:09:01.173Z,2656.00
2019-01-09T11:10:01.156Z,2336.00
2019-01-09T11:11:01.200Z,2116.00
2019-01-09T11:12:01.231Z,2076.00
2019-01-09T11:13:01.261Z,2092.00
2019-01-09T11:14:01.308Z,2120.00
2019-01-09T11:15:01.353Z,2196.00
2019-01-09T11:16:01.369Z,2152.00
2019-01-09T11:17:01.404Z,2628.00
2019-01-09T11:18:01.440Z,2948.00
2019-01-09T11:19:01.475Z,3464.00
2019-01-09T11:20:01.510Z,3832.00
2019-01-09T11:21:03.541Z,3944.00
2019-01-09T11:22:01.581Z,4076.00
2019-01-09T11:23:01.616Z,4140.00
2019-01-09T11:24:01.653Z,4216.00
2019-01-09T11:25:01.983Z,4484.00
2019-01-09T11:26:01.725Z,4496.00
2019-01-09T11:27:01.759Z,4996.00
2019-01-09T11:28:01.793Z,5260.00
2019-01-09T11:29:01.830Z,5608.00
2019-01-09T11:30:01.871Z,5628.00
2019-01-09T11:31:01.899Z,5404.00
2019-01-09T11:32:01.936Z,5016.00
2019-01-09T11:33:01.971Z,4808.00
2019-01-09T11:34:02.012Z,4404.00
2019-01-09T11:35:02.045Z,4288.00
2019-01-09T11:36:02.087Z,4168.00
2019-01-09T11:37:02.181Z,3948.00
2019-01-09T11:38:02.148Z,3816.00
2019-01-09T11:39:02.182Z,4156.00
2019-01-09T11:40:02.230Z,4580.00
2019-01-09T11:41:02.263Z,4840.00
2019-01-09T11:42:02.305Z,4924.00
2019-01-09T11:43:03.757Z,4708.00
2019-01-09T11:44:02.359Z,4788.00
2019-01-09T11:45:02.401Z,5136.00
2019-01-09T11:46:02.431Z,4968.00
2019-01-09T11:47:02.494Z,5268.00
2019-01-09T11:48:02.502Z,6284.00
2019-01-09T11:49:02.546Z,6612.00
2019-01-09T11:50:02.574Z,6152.00
2019-01-09T11:51:02.616Z,6112.00
2019-01-09T11:52:02.651Z,6036.00
2019-01-09T11:53:02.679Z,5668.00
2019-01-09T11:54:02.725Z,5964.00
2019-01-09T11:55:02.748Z,6024.00
2019-01-09T11:56:02.784Z,5028.00
2019-01-09T11:57:02.820Z,4728.00
2019-01-09T11:58:02.855Z,4696.00
2019-01-09T11:59:02.890Z,4236.00
2019-01-09T12:00:02.927Z,4216.00
2019-01-09T12:01:02.969Z,4500.00
2019-01-09T12:02:03.001Z,4660.00
2019-01-09T12:03:03.032Z,4972.00
2019-01-09T12:04:03.067Z,5140.00
2019-01-09T12:05:03.104Z,4900.00
2019-01-09T12:06:03.139Z,5032.00
2019-01-09T12:07:03.178Z,5032.00
2019-01-09T12:08:03.215Z,5236.00
2019-01-09T12:09:04.701Z,5288.00
2019-01-09T12:10:03.289Z,5224.00
2019-01-09T12:11:03.329Z,5016.00
2019-01-09T12:12:03.352Z,5132.00
2019-01-09T12:13:03.388Z,5140.00
2019-01-09T12:14:03.422Z,5284.00
2019-01-09T12:15:03.458Z,5344.00
2019-01-09T12:16:08.210Z,5216.00
2019-01-09T12:17:03.529Z,5064.00
2019-01-09T12:18:03.564Z,5080.00
2019-01-09T12:19:03.600Z,5124.00
2019-01-09T12:20:03.664Z,5140.00
2019-01-09T12:21:03.671Z,5384.00
2019-01-09T12:22:03.707Z,5492.00
2019-01-09T12:23:03.742Z,5716.00
2019-01-09T12:24:03.777Z,5932.00
2019-01-09T12:25:03.815Z,5936.00
2019-01-09T12:26:03.850Z,5768.00
2019-01-09T12:27:03.883Z,5752.00
2019-01-09T12:28:03.928Z,5420.00
2019-01-09T12:29:03.954Z,5564.00
2019-01-09T12:30:03.992Z,5188.00
2019-01-09T12:31:04.029Z,4948.00
2019-01-09T12:32:04.073Z,4716.00
2019-01-09T12:33:04.105Z,3636.00
2019-01-09T12:34:04.135Z,3480.00
2019-01-09T12:35:04.170Z,3276.00
2019-01-09T12:36:04.203Z,3176.00
2019-01-09T12:37:04.246Z,2904.00
2019-01-09T12:38:04.279Z,2816.00
2019-01-09T12:39:13.002Z,2776.00
2019-01-09T12:40:04.351Z,2980.00
2019-01-09T12:41:04.380Z,2960.00
2019-01-09T12:42:04.421Z,2736.00
2019-01-09T12:43:04.451Z,2972.00
2019-01-09T12:44:04.497Z,2988.00
2019-01-09T12:45:04.524Z,2684.00
2019-01-09T12:46:04.560Z,2800.00
2019-01-09T12:47:04.594Z,2464.00